sensor_id;sensor_type;location;lat;lon;timestamp;P1;durP1;ratioP1;P2;durP2;ratioP2
6517;SDS011;3292;48.944;9.240;2023-03-31T00:01:48;2.77;;;2.17;;
6517;SDS011;3292;48.944;9.240;2023-03-31T00:04:16;5.33;;;2.47;;
6517;SDS011;3292;48.944;9.240;2023-03-31T00:06:48;4.83;;;2.37;;
6517;SDS011;3292;48.944;9.240;2023-03-31T00:09:19;4.47;;;2.37;;
6517;SDS011;3292;48.944;9.240;2023-03-31T00:11:47;5.50;;;2.57;;
6517;SDS011;3292;48.944;9.240;2023-03-31T00:14:14;4.73;;;2.60;;
6517;SDS011;3292;48.944;9.240;2023-03-31T00:16:42;6.07;;;2.50;;
6517;SDS011;3292;48.944;9.240;2023-03-31T00:19:09;6.00;;;3.00;;
6517;SDS011;3292;48.944;9.240;2023-03-31T00:21:42;3.17;;;2.30;;
6517;SDS011;3292;48.944;9.240;2023-03-31T00:24:09;4.90;;;2.47;;
6517;SDS011;3292;48.944;9.240;2023-03-31T00:26:38;4.40;;;2.43;;
6517;SDS011;3292;48.944;9.240;2023-03-31T00:29:06;4.60;;;2.17;;
6517;SDS011;3292;48.944;9.240;2023-03-31T00:31:35;5.13;;;2.40;;
6517;SDS011;3292;48.944;9.240;2023-03-31T00:34:03;4.50;;;2.27;;
6517;SDS011;3292;48.944;9.240;2023-03-31T00:36:30;6.33;;;2.10;;
6517;SDS011;3292;48.944;9.240;2023-03-31T00:39:01;4.13;;;2.20;;
6517;SDS011;3292;48.944;9.240;2023-03-31T00:41:32;4.47;;;2.67;;
6517;SDS011;3292;48.944;9.240;2023-03-31T00:44:04;5.80;;;2.60;;
6517;SDS011;3292;48.944;9.240;2023-03-31T00:46:33;4.53;;;2.40;;
6517;SDS011;3292;48.944;9.240;2023-03-31T00:49:07;4.70;;;2.47;;
6517;SDS011;3292;48.944;9.240;2023-03-31T00:51:44;6.27;;;2.37;;
6517;SDS011;3292;48.944;9.240;2023-03-31T00:54:15;4.33;;;2.20;;
6517;SDS011;3292;48.944;9.240;2023-03-31T00:56:46;4.30;;;2.03;;
6517;SDS011;3292;48.944;9.240;2023-03-31T00:59:18;3.37;;;2.03;;
6517;SDS011;3292;48.944;9.240;2023-03-31T01:01:45;5.63;;;2.53;;
6517;SDS011;3292;48.944;9.240;2023-03-31T01:04:14;5.00;;;2.20;;
6517;SDS011;3292;48.944;9.240;2023-03-31T01:06:48;4.27;;;2.47;;
6517;SDS011;3292;48.944;9.240;2023-03-31T01:09:21;5.93;;;2.57;;
6517;SDS011;3292;48.944;9.240;2023-03-31T01:11:49;4.83;;;2.50;;
6517;SDS011;3292;48.944;9.240;2023-03-31T01:14:16;4.17;;;2.00;;
6517;SDS011;3292;48.944;9.240;2023-03-31T01:16:44;5.97;;;2.27;;
6517;SDS011;3292;48.944;9.240;2023-03-31T01:19:12;4.57;;;2.23;;
6517;SDS011;3292;48.944;9.240;2023-03-31T01:21:52;3.87;;;2.27;;
6517;SDS011;3292;48.944;9.240;2023-03-31T01:24:49;5.57;;;2.47;;
6517;SDS011;3292;48.944;9.240;2023-03-31T01:27:42;4.47;;;2.57;;
6517;SDS011;3292;48.944;9.240;2023-03-31T01:30:34;3.30;;;2.40;;
6517;SDS011;3292;48.944;9.240;2023-03-31T01:33:37;5.63;;;2.33;;
6517;SDS011;3292;48.944;9.240;2023-03-31T01:36:36;5.10;;;2.30;;
6517;SDS011;3292;48.944;9.240;2023-03-31T01:39:24;4.10;;;2.33;;
6517;SDS011;3292;48.944;9.240;2023-03-31T01:42:10;5.97;;;2.67;;
6517;SDS011;3292;48.944;9.240;2023-03-31T01:44:48;6.37;;;2.63;;
6517;SDS011;3292;48.944;9.240;2023-03-31T01:47:26;6.30;;;2.27;;
6517;SDS011;3292;48.944;9.240;2023-03-31T01:49:59;5.73;;;2.40;;
6517;SDS011;3292;48.944;9.240;2023-03-31T01:52:31;3.87;;;2.20;;
6517;SDS011;3292;48.944;9.240;2023-03-31T01:55:06;3.83;;;2.43;;
6517;SDS011;3292;48.944;9.240;2023-03-31T01:57:39;5.07;;;2.47;;
6517;SDS011;3292;48.944;9.240;2023-03-31T02:00:11;6.47;;;2.30;;
6517;SDS011;3292;48.944;9.240;2023-03-31T02:02:44;4.73;;;2.30;;
6517;SDS011;3292;48.944;9.240;2023-03-31T02:05:14;3.43;;;2.60;;
6517;SDS011;3292;48.944;9.240;2023-03-31T02:07:45;5.83;;;2.80;;
6517;SDS011;3292;48.944;9.240;2023-03-31T02:10:16;7.33;;;2.77;;
6517;SDS011;3292;48.944;9.240;2023-03-31T02:12:46;7.20;;;2.50;;
6517;SDS011;3292;48.944;9.240;2023-03-31T02:15:17;4.63;;;2.40;;
6517;SDS011;3292;48.944;9.240;2023-03-31T02:17:50;5.50;;;2.37;;
6517;SDS011;3292;48.944;9.240;2023-03-31T02:20:22;4.20;;;2.60;;
6517;SDS011;3292;48.944;9.240;2023-03-31T02:22:51;4.17;;;2.30;;
6517;SDS011;3292;48.944;9.240;2023-03-31T02:25:21;7.40;;;2.30;;
6517;SDS011;3292;48.944;9.240;2023-03-31T02:27:54;5.17;;;2.47;;
6517;SDS011;3292;48.944;9.240;2023-03-31T02:30:25;5.17;;;2.40;;
6517;SDS011;3292;48.944;9.240;2023-03-31T02:32:59;4.30;;;2.20;;
6517;SDS011;3292;48.944;9.240;2023-03-31T02:35:28;5.83;;;2.20;;
6517;SDS011;3292;48.944;9.240;2023-03-31T02:37:55;4.17;;;2.20;;
6517;SDS011;3292;48.944;9.240;2023-03-31T02:40:24;5.17;;;2.17;;
6517;SDS011;3292;48.944;9.240;2023-03-31T02:42:51;5.17;;;2.10;;
6517;SDS011;3292;48.944;9.240;2023-03-31T02:45:38;4.10;;;2.30;;
6517;SDS011;3292;48.944;9.240;2023-03-31T02:48:08;3.47;;;2.37;;
6517;SDS011;3292;48.944;9.240;2023-03-31T02:50:42;3.13;;;2.07;;
6517;SDS011;3292;48.944;9.240;2023-03-31T02:53:21;3.87;;;2.10;;
6517;SDS011;3292;48.944;9.240;2023-03-31T02:56:05;4.20;;;2.30;;
6517;SDS011;3292;48.944;9.240;2023-03-31T02:58:49;3.50;;;1.93;;
6517;SDS011;3292;48.944;9.240;2023-03-31T03:01:32;4.60;;;2.17;;
6517;SDS011;3292;48.944;9.240;2023-03-31T03:04:09;2.87;;;2.00;;
6517;SDS011;3292;48.944;9.240;2023-03-31T03:06:51;4.40;;;2.27;;
6517;SDS011;3292;48.944;9.240;2023-03-31T03:09:26;3.23;;;2.23;;
6517;SDS011;3292;48.944;9.240;2023-03-31T03:12:05;6.77;;;2.40;;
6517;SDS011;3292;48.944;9.240;2023-03-31T03:14:38;4.37;;;2.20;;
6517;SDS011;3292;48.944;9.240;2023-03-31T03:17:13;4.37;;;2.10;;
6517;SDS011;3292;48.944;9.240;2023-03-31T03:19:43;5.70;;;2.50;;
6517;SDS011;3292;48.944;9.240;2023-03-31T03:22:17;6.87;;;2.70;;
6517;SDS011;3292;48.944;9.240;2023-03-31T03:24:44;6.83;;;2.10;;
6517;SDS011;3292;48.944;9.240;2023-03-31T03:27:11;4.43;;;2.33;;
6517;SDS011;3292;48.944;9.240;2023-03-31T03:29:39;5.20;;;2.43;;
6517;SDS011;3292;48.944;9.240;2023-03-31T03:32:07;7.70;;;2.53;;
6517;SDS011;3292;48.944;9.240;2023-03-31T03:34:34;4.53;;;2.67;;
6517;SDS011;3292;48.944;9.240;2023-03-31T03:37:01;4.17;;;2.60;;
6517;SDS011;3292;48.944;9.240;2023-03-31T03:39:28;4.23;;;2.53;;
6517;SDS011;3292;48.944;9.240;2023-03-31T03:41:55;4.40;;;2.10;;
6517;SDS011;3292;48.944;9.240;2023-03-31T03:44:22;6.60;;;2.87;;
6517;SDS011;3292;48.944;9.240;2023-03-31T03:46:50;4.17;;;2.40;;
6517;SDS011;3292;48.944;9.240;2023-03-31T03:49:17;4.20;;;2.80;;
6517;SDS011;3292;48.944;9.240;2023-03-31T03:51:44;4.90;;;2.40;;
6517;SDS011;3292;48.944;9.240;2023-03-31T03:54:11;5.40;;;2.97;;
6517;SDS011;3292;48.944;9.240;2023-03-31T03:56:38;7.27;;;2.57;;
6517;SDS011;3292;48.944;9.240;2023-03-31T03:59:05;4.57;;;2.50;;
6517;SDS011;3292;48.944;9.240;2023-03-31T04:01:32;7.20;;;3.07;;
6517;SDS011;3292;48.944;9.240;2023-03-31T04:04:00;5.13;;;2.73;;
6517;SDS011;3292;48.944;9.240;2023-03-31T04:06:27;5.03;;;3.00;;
6517;SDS011;3292;48.944;9.240;2023-03-31T04:08:53;5.37;;;2.50;;
6517;SDS011;3292;48.944;9.240;2023-03-31T04:11:20;5.07;;;3.00;;
6517;SDS011;3292;48.944;9.240;2023-03-31T04:13:47;6.73;;;3.13;;
6517;SDS011;3292;48.944;9.240;2023-03-31T04:16:14;8.40;;;3.07;;
6517;SDS011;3292;48.944;9.240;2023-03-31T04:18:41;5.13;;;2.80;;
6517;SDS011;3292;48.944;9.240;2023-03-31T04:21:10;4.30;;;2.63;;
6517;SDS011;3292;48.944;9.240;2023-03-31T04:23:39;4.37;;;2.90;;
6517;SDS011;3292;48.944;9.240;2023-03-31T04:26:10;7.23;;;2.67;;
6517;SDS011;3292;48.944;9.240;2023-03-31T04:28:37;6.27;;;3.10;;
6517;SDS011;3292;48.944;9.240;2023-03-31T04:31:07;6.83;;;3.27;;
6517;SDS011;3292;48.944;9.240;2023-03-31T04:33:39;5.10;;;3.00;;
6517;SDS011;3292;48.944;9.240;2023-03-31T04:36:11;5.77;;;3.17;;
6517;SDS011;3292;48.944;9.240;2023-03-31T04:38:42;5.93;;;3.07;;
6517;SDS011;3292;48.944;9.240;2023-03-31T04:41:10;5.43;;;3.00;;
6517;SDS011;3292;48.944;9.240;2023-03-31T04:43:37;7.33;;;4.00;;
6517;SDS011;3292;48.944;9.240;2023-03-31T04:46:04;6.00;;;3.23;;
6517;SDS011;3292;48.944;9.240;2023-03-31T04:48:31;7.70;;;3.53;;
6517;SDS011;3292;48.944;9.240;2023-03-31T04:50:59;6.90;;;3.53;;
6517;SDS011;3292;48.944;9.240;2023-03-31T04:53:27;5.07;;;3.40;;
6517;SDS011;3292;48.944;9.240;2023-03-31T04:55:54;4.90;;;3.40;;
6517;SDS011;3292;48.944;9.240;2023-03-31T04:58:21;7.20;;;3.57;;
6517;SDS011;3292;48.944;9.240;2023-03-31T05:00:48;5.23;;;3.37;;
6517;SDS011;3292;48.944;9.240;2023-03-31T05:03:15;3.37;;;3.07;;
6517;SDS011;3292;48.944;9.240;2023-03-31T05:05:42;7.20;;;3.50;;
6517;SDS011;3292;48.944;9.240;2023-03-31T05:08:08;5.23;;;3.23;;
6517;SDS011;3292;48.944;9.240;2023-03-31T05:10:37;4.57;;;3.17;;
6517;SDS011;3292;48.944;9.240;2023-03-31T05:13:04;6.03;;;3.53;;
6517;SDS011;3292;48.944;9.240;2023-03-31T05:15:31;6.03;;;3.40;;
6517;SDS011;3292;48.944;9.240;2023-03-31T05:17:58;5.97;;;3.50;;
6517;SDS011;3292;48.944;9.240;2023-03-31T05:20:24;4.47;;;3.20;;
6517;SDS011;3292;48.944;9.240;2023-03-31T05:22:51;7.40;;;3.60;;
6517;SDS011;3292;48.944;9.240;2023-03-31T05:25:18;6.87;;;3.50;;
6517;SDS011;3292;48.944;9.240;2023-03-31T05:27:50;7.47;;;3.73;;
6517;SDS011;3292;48.944;9.240;2023-03-31T05:30:17;6.93;;;3.40;;
6517;SDS011;3292;48.944;9.240;2023-03-31T05:32:44;10.33;;;4.63;;
6517;SDS011;3292;48.944;9.240;2023-03-31T05:35:10;7.13;;;4.43;;
6517;SDS011;3292;48.944;9.240;2023-03-31T05:37:37;8.10;;;4.50;;
6517;SDS011;3292;48.944;9.240;2023-03-31T05:40:05;9.67;;;3.77;;
6517;SDS011;3292;48.944;9.240;2023-03-31T05:42:33;8.10;;;4.60;;
6517;SDS011;3292;48.944;9.240;2023-03-31T05:45:01;11.97;;;4.83;;
6517;SDS011;3292;48.944;9.240;2023-03-31T05:47:29;8.03;;;5.60;;
6517;SDS011;3292;48.944;9.240;2023-03-31T05:49:57;15.70;;;9.10;;
6517;SDS011;3292;48.944;9.240;2023-03-31T05:52:23;13.43;;;7.77;;
6517;SDS011;3292;48.944;9.240;2023-03-31T05:54:50;13.13;;;5.50;;
6517;SDS011;3292;48.944;9.240;2023-03-31T05:57:17;10.10;;;5.43;;
6517;SDS011;3292;48.944;9.240;2023-03-31T05:59:44;10.20;;;5.40;;
6517;SDS011;3292;48.944;9.240;2023-03-31T06:02:12;7.13;;;5.70;;
6517;SDS011;3292;48.944;9.240;2023-03-31T06:04:39;7.30;;;4.63;;
6517;SDS011;3292;48.944;9.240;2023-03-31T06:07:07;9.43;;;5.47;;
6517;SDS011;3292;48.944;9.240;2023-03-31T06:09:35;9.43;;;5.50;;
6517;SDS011;3292;48.944;9.240;2023-03-31T06:12:02;8.73;;;5.07;;
6517;SDS011;3292;48.944;9.240;2023-03-31T06:14:29;7.33;;;5.17;;
6517;SDS011;3292;48.944;9.240;2023-03-31T06:16:56;12.10;;;5.37;;
6517;SDS011;3292;48.944;9.240;2023-03-31T06:19:24;11.53;;;5.87;;
6517;SDS011;3292;48.944;9.240;2023-03-31T06:21:51;8.90;;;6.20;;
6517;SDS011;3292;48.944;9.240;2023-03-31T06:24:18;8.07;;;5.90;;
6517;SDS011;3292;48.944;9.240;2023-03-31T06:26:45;6.93;;;5.30;;
6517;SDS011;3292;48.944;9.240;2023-03-31T06:29:12;12.80;;;5.83;;
6517;SDS011;3292;48.944;9.240;2023-03-31T06:31:39;11.40;;;6.43;;
6517;SDS011;3292;48.944;9.240;2023-03-31T06:34:05;10.33;;;6.80;;
6517;SDS011;3292;48.944;9.240;2023-03-31T06:36:34;15.37;;;7.83;;
6517;SDS011;3292;48.944;9.240;2023-03-31T06:39:00;9.67;;;7.57;;
6517;SDS011;3292;48.944;9.240;2023-03-31T06:41:27;10.33;;;7.10;;
6517;SDS011;3292;48.944;9.240;2023-03-31T06:43:54;12.63;;;7.30;;
6517;SDS011;3292;48.944;9.240;2023-03-31T06:46:21;8.50;;;7.13;;
6517;SDS011;3292;48.944;9.240;2023-03-31T06:48:48;10.67;;;7.00;;
6517;SDS011;3292;48.944;9.240;2023-03-31T06:51:15;11.90;;;7.30;;
6517;SDS011;3292;48.944;9.240;2023-03-31T06:53:44;9.87;;;6.10;;
6517;SDS011;3292;48.944;9.240;2023-03-31T06:56:11;9.80;;;6.70;;
6517;SDS011;3292;48.944;9.240;2023-03-31T06:58:38;10.23;;;6.27;;
6517;SDS011;3292;48.944;9.240;2023-03-31T07:01:05;11.23;;;6.37;;
6517;SDS011;3292;48.944;9.240;2023-03-31T07:03:31;10.47;;;6.07;;
6517;SDS011;3292;48.944;9.240;2023-03-31T07:05:59;11.13;;;5.87;;
6517;SDS011;3292;48.944;9.240;2023-03-31T07:08:26;12.07;;;6.30;;
6517;SDS011;3292;48.944;9.240;2023-03-31T07:10:55;10.67;;;6.27;;
6517;SDS011;3292;48.944;9.240;2023-03-31T07:13:24;8.93;;;6.10;;
6517;SDS011;3292;48.944;9.240;2023-03-31T07:15:52;10.50;;;5.93;;
6517;SDS011;3292;48.944;9.240;2023-03-31T07:18:19;10.33;;;6.37;;
6517;SDS011;3292;48.944;9.240;2023-03-31T07:20:50;11.63;;;6.33;;
6517;SDS011;3292;48.944;9.240;2023-03-31T07:23:17;11.87;;;7.70;;
6517;SDS011;3292;48.944;9.240;2023-03-31T07:25:45;9.20;;;6.37;;
6517;SDS011;3292;48.944;9.240;2023-03-31T07:28:13;9.80;;;6.27;;
6517;SDS011;3292;48.944;9.240;2023-03-31T07:30:41;13.80;;;7.60;;
6517;SDS011;3292;48.944;9.240;2023-03-31T07:33:08;12.77;;;6.77;;
6517;SDS011;3292;48.944;9.240;2023-03-31T07:35:36;8.83;;;6.13;;
6517;SDS011;3292;48.944;9.240;2023-03-31T07:38:03;9.83;;;6.50;;
6517;SDS011;3292;48.944;9.240;2023-03-31T07:40:30;9.23;;;5.67;;
6517;SDS011;3292;48.944;9.240;2023-03-31T07:42:57;9.23;;;6.20;;
6517;SDS011;3292;48.944;9.240;2023-03-31T07:45:26;14.10;;;5.47;;
6517;SDS011;3292;48.944;9.240;2023-03-31T07:47:53;11.50;;;5.47;;
6517;SDS011;3292;48.944;9.240;2023-03-31T07:50:20;9.17;;;5.23;;
6517;SDS011;3292;48.944;9.240;2023-03-31T07:52:47;8.00;;;4.53;;
6517;SDS011;3292;48.944;9.240;2023-03-31T07:55:15;5.07;;;3.80;;
6517;SDS011;3292;48.944;9.240;2023-03-31T07:57:43;5.27;;;3.87;;
6517;SDS011;3292;48.944;9.240;2023-03-31T08:00:12;6.63;;;3.27;;
6517;SDS011;3292;48.944;9.240;2023-03-31T08:02:42;3.93;;;2.87;;
6517;SDS011;3292;48.944;9.240;2023-03-31T08:05:09;4.10;;;2.67;;
6517;SDS011;3292;48.944;9.240;2023-03-31T08:07:37;3.33;;;2.70;;
6517;SDS011;3292;48.944;9.240;2023-03-31T08:10:07;3.23;;;2.57;;
6517;SDS011;3292;48.944;9.240;2023-03-31T08:12:37;2.83;;;2.30;;
6517;SDS011;3292;48.944;9.240;2023-03-31T08:15:04;3.03;;;2.23;;
6517;SDS011;3292;48.944;9.240;2023-03-31T08:17:32;2.47;;;2.10;;
6517;SDS011;3292;48.944;9.240;2023-03-31T08:20:01;3.37;;;2.00;;
6517;SDS011;3292;48.944;9.240;2023-03-31T08:22:30;3.00;;;2.10;;
6517;SDS011;3292;48.944;9.240;2023-03-31T08:24:57;3.07;;;2.20;;
6517;SDS011;3292;48.944;9.240;2023-03-31T08:27:24;3.40;;;1.97;;
6517;SDS011;3292;48.944;9.240;2023-03-31T08:29:51;3.57;;;1.90;;
6517;SDS011;3292;48.944;9.240;2023-03-31T08:32:20;4.40;;;2.30;;
6517;SDS011;3292;48.944;9.240;2023-03-31T08:34:47;2.97;;;1.90;;
6517;SDS011;3292;48.944;9.240;2023-03-31T08:37:15;4.30;;;2.23;;
6517;SDS011;3292;48.944;9.240;2023-03-31T08:39:42;3.57;;;2.33;;
6517;SDS011;3292;48.944;9.240;2023-03-31T08:42:10;3.13;;;2.00;;
6517;SDS011;3292;48.944;9.240;2023-03-31T08:44:41;2.73;;;2.03;;
6517;SDS011;3292;48.944;9.240;2023-03-31T08:47:14;3.73;;;1.97;;
6517;SDS011;3292;48.944;9.240;2023-03-31T08:49:44;3.30;;;1.80;;
6517;SDS011;3292;48.944;9.240;2023-03-31T08:52:17;2.70;;;1.90;;
6517;SDS011;3292;48.944;9.240;2023-03-31T08:54:48;4.03;;;1.93;;
6517;SDS011;3292;48.944;9.240;2023-03-31T08:57:19;2.57;;;1.73;;
6517;SDS011;3292;48.944;9.240;2023-03-31T08:59:50;3.57;;;2.20;;
6517;SDS011;3292;48.944;9.240;2023-03-31T09:02:19;3.63;;;1.87;;
6517;SDS011;3292;48.944;9.240;2023-03-31T09:04:57;2.93;;;2.37;;
6517;SDS011;3292;48.944;9.240;2023-03-31T09:07:48;4.27;;;1.83;;
6517;SDS011;3292;48.944;9.240;2023-03-31T09:10:25;5.30;;;2.13;;
6517;SDS011;3292;48.944;9.240;2023-03-31T09:13:06;3.17;;;2.10;;
6517;SDS011;3292;48.944;9.240;2023-03-31T09:15:45;3.60;;;1.90;;
6517;SDS011;3292;48.944;9.240;2023-03-31T09:18:29;5.20;;;2.50;;
6517;SDS011;3292;48.944;9.240;2023-03-31T09:21:01;3.70;;;2.03;;
6517;SDS011;3292;48.944;9.240;2023-03-31T09:23:37;3.70;;;2.00;;
6517;SDS011;3292;48.944;9.240;2023-03-31T09:26:10;3.40;;;1.80;;
6517;SDS011;3292;48.944;9.240;2023-03-31T09:28:46;5.13;;;2.13;;
6517;SDS011;3292;48.944;9.240;2023-03-31T09:31:15;5.00;;;2.07;;
6517;SDS011;3292;48.944;9.240;2023-03-31T09:33:44;2.70;;;2.00;;
6517;SDS011;3292;48.944;9.240;2023-03-31T09:36:13;4.53;;;1.90;;
6517;SDS011;3292;48.944;9.240;2023-03-31T09:38:43;5.53;;;2.03;;
6517;SDS011;3292;48.944;9.240;2023-03-31T09:41:11;6.17;;;2.20;;
6517;SDS011;3292;48.944;9.240;2023-03-31T09:43:40;4.20;;;2.20;;
6517;SDS011;3292;48.944;9.240;2023-03-31T09:46:12;4.60;;;1.87;;
6517;SDS011;3292;48.944;9.240;2023-03-31T09:48:46;4.33;;;1.97;;
6517;SDS011;3292;48.944;9.240;2023-03-31T09:51:19;4.90;;;1.90;;
6517;SDS011;3292;48.944;9.240;2023-03-31T09:53:53;4.60;;;2.13;;
6517;SDS011;3292;48.944;9.240;2023-03-31T09:56:33;3.93;;;2.10;;
6517;SDS011;3292;48.944;9.240;2023-03-31T09:59:13;6.37;;;2.40;;
6517;SDS011;3292;48.944;9.240;2023-03-31T10:01:43;7.43;;;2.50;;
6517;SDS011;3292;48.944;9.240;2023-03-31T10:04:16;5.73;;;2.73;;
6517;SDS011;3292;48.944;9.240;2023-03-31T10:06:46;7.13;;;2.33;;
6517;SDS011;3292;48.944;9.240;2023-03-31T10:09:14;4.80;;;2.27;;
6517;SDS011;3292;48.944;9.240;2023-03-31T10:11:50;7.80;;;2.40;;
6517;SDS011;3292;48.944;9.240;2023-03-31T10:14:26;6.17;;;2.57;;
6517;SDS011;3292;48.944;9.240;2023-03-31T10:17:01;5.10;;;2.30;;
6517;SDS011;3292;48.944;9.240;2023-03-31T10:19:32;5.43;;;2.27;;
6517;SDS011;3292;48.944;9.240;2023-03-31T10:22:01;6.60;;;2.70;;
6517;SDS011;3292;48.944;9.240;2023-03-31T10:24:38;4.97;;;2.40;;
6517;SDS011;3292;48.944;9.240;2023-03-31T10:27:12;5.43;;;1.90;;
6517;SDS011;3292;48.944;9.240;2023-03-31T10:29:44;6.30;;;2.43;;
6517;SDS011;3292;48.944;9.240;2023-03-31T10:32:13;6.43;;;2.40;;
6517;SDS011;3292;48.944;9.240;2023-03-31T10:34:47;8.30;;;2.53;;
6517;SDS011;3292;48.944;9.240;2023-03-31T10:37:15;5.90;;;2.13;;
6517;SDS011;3292;48.944;9.240;2023-03-31T10:39:45;5.27;;;2.43;;
6517;SDS011;3292;48.944;9.240;2023-03-31T10:42:18;4.43;;;2.40;;
6517;SDS011;3292;48.944;9.240;2023-03-31T10:44:47;4.10;;;2.23;;
6517;SDS011;3292;48.944;9.240;2023-03-31T10:47:16;4.50;;;2.17;;
6517;SDS011;3292;48.944;9.240;2023-03-31T10:49:46;6.10;;;2.57;;
6517;SDS011;3292;48.944;9.240;2023-03-31T10:52:16;5.93;;;2.17;;
6517;SDS011;3292;48.944;9.240;2023-03-31T10:54:47;3.87;;;1.87;;
6517;SDS011;3292;48.944;9.240;2023-03-31T10:57:15;4.60;;;1.97;;
6517;SDS011;3292;48.944;9.240;2023-03-31T11:02:46;6.60;;;2.40;;
6517;SDS011;3292;48.944;9.240;2023-03-31T11:05:33;4.97;;;2.30;;
6517;SDS011;3292;48.944;9.240;2023-03-31T11:08:20;4.67;;;1.93;;
6517;SDS011;3292;48.944;9.240;2023-03-31T11:11:09;3.93;;;2.00;;
6517;SDS011;3292;48.944;9.240;2023-03-31T11:13:47;3.67;;;2.17;;
6517;SDS011;3292;48.944;9.240;2023-03-31T11:16:22;7.37;;;2.40;;
6517;SDS011;3292;48.944;9.240;2023-03-31T11:19:08;3.43;;;1.90;;
6517;SDS011;3292;48.944;9.240;2023-03-31T11:21:45;7.33;;;2.40;;
6517;SDS011;3292;48.944;9.240;2023-03-31T11:24:23;2.43;;;1.70;;
6517;SDS011;3292;48.944;9.240;2023-03-31T11:27:03;2.10;;;1.17;;
6517;SDS011;3292;48.944;9.240;2023-03-31T11:29:46;5.10;;;1.87;;
6517;SDS011;3292;48.944;9.240;2023-03-31T11:32:21;2.87;;;1.60;;
6517;SDS011;3292;48.944;9.240;2023-03-31T11:35:02;4.27;;;1.60;;
6517;SDS011;3292;48.944;9.240;2023-03-31T11:37:53;2.17;;;1.60;;
6517;SDS011;3292;48.944;9.240;2023-03-31T11:40:32;4.47;;;1.53;;
6517;SDS011;3292;48.944;9.240;2023-03-31T11:43:06;2.73;;;1.70;;
6517;SDS011;3292;48.944;9.240;2023-03-31T11:45:40;3.40;;;1.47;;
6517;SDS011;3292;48.944;9.240;2023-03-31T11:48:13;1.87;;;1.60;;
6517;SDS011;3292;48.944;9.240;2023-03-31T11:50:44;2.17;;;1.30;;
6517;SDS011;3292;48.944;9.240;2023-03-31T11:53:14;2.07;;;1.40;;
6517;SDS011;3292;48.944;9.240;2023-03-31T11:55:42;2.87;;;1.30;;
6517;SDS011;3292;48.944;9.240;2023-03-31T11:58:13;1.23;;;1.17;;
6517;SDS011;3292;48.944;9.240;2023-03-31T12:00:46;1.73;;;1.57;;
6517;SDS011;3292;48.944;9.240;2023-03-31T12:03:18;2.03;;;1.30;;
6517;SDS011;3292;48.944;9.240;2023-03-31T12:05:49;1.40;;;1.30;;
6517;SDS011;3292;48.944;9.240;2023-03-31T12:08:22;1.80;;;1.17;;
6517;SDS011;3292;48.944;9.240;2023-03-31T12:10:54;1.73;;;1.23;;
6517;SDS011;3292;48.944;9.240;2023-03-31T12:13:32;2.17;;;1.30;;
6517;SDS011;3292;48.944;9.240;2023-03-31T12:16:04;1.63;;;1.50;;
6517;SDS011;3292;48.944;9.240;2023-03-31T12:18:37;1.37;;;1.10;;
6517;SDS011;3292;48.944;9.240;2023-03-31T12:21:08;1.20;;;1.10;;
6517;SDS011;3292;48.944;9.240;2023-03-31T12:23:38;3.00;;;1.20;;
6517;SDS011;3292;48.944;9.240;2023-03-31T12:26:11;2.07;;;1.70;;
6517;SDS011;3292;48.944;9.240;2023-03-31T12:28:49;1.93;;;1.23;;
6517;SDS011;3292;48.944;9.240;2023-03-31T12:31:23;1.70;;;1.20;;
6517;SDS011;3292;48.944;9.240;2023-03-31T12:33:53;1.43;;;1.33;;
6517;SDS011;3292;48.944;9.240;2023-03-31T12:36:26;1.30;;;1.20;;
6517;SDS011;3292;48.944;9.240;2023-03-31T12:39:02;2.37;;;1.10;;
6517;SDS011;3292;48.944;9.240;2023-03-31T12:41:40;3.53;;;1.30;;
6517;SDS011;3292;48.944;9.240;2023-03-31T12:44:22;2.47;;;1.50;;
6517;SDS011;3292;48.944;9.240;2023-03-31T12:46:57;2.67;;;1.50;;
6517;SDS011;3292;48.944;9.240;2023-03-31T12:49:45;2.50;;;1.40;;
6517;SDS011;3292;48.944;9.240;2023-03-31T12:52:21;3.90;;;1.70;;
6517;SDS011;3292;48.944;9.240;2023-03-31T12:55:01;2.17;;;1.40;;
6517;SDS011;3292;48.944;9.240;2023-03-31T12:58:01;2.43;;;1.43;;
6517;SDS011;3292;48.944;9.240;2023-03-31T13:01:19;3.17;;;1.57;;
6517;SDS011;3292;48.944;9.240;2023-03-31T13:03:53;5.50;;;1.83;;
6517;SDS011;3292;48.944;9.240;2023-03-31T13:09:44;2.50;;;1.40;;
6517;SDS011;3292;48.944;9.240;2023-03-31T13:12:16;4.80;;;1.97;;
6517;SDS011;3292;48.944;9.240;2023-03-31T13:14:46;6.87;;;2.40;;
6517;SDS011;3292;48.944;9.240;2023-03-31T13:17:27;3.73;;;1.90;;
6517;SDS011;3292;48.944;9.240;2023-03-31T13:19:56;4.10;;;2.00;;
6517;SDS011;3292;48.944;9.240;2023-03-31T13:22:42;1.87;;;1.50;;
6517;SDS011;3292;48.944;9.240;2023-03-31T13:28:16;3.03;;;1.50;;
6517;SDS011;3292;48.944;9.240;2023-03-31T13:30:58;4.27;;;1.80;;
6517;SDS011;3292;48.944;9.240;2023-03-31T13:33:31;1.87;;;1.53;;
6517;SDS011;3292;48.944;9.240;2023-03-31T13:39:41;2.27;;;1.40;;
6517;SDS011;3292;48.944;9.240;2023-03-31T13:42:27;2.03;;;1.20;;
6517;SDS011;3292;48.944;9.240;2023-03-31T13:45:18;1.60;;;1.13;;
6517;SDS011;3292;48.944;9.240;2023-03-31T13:48:02;1.97;;;1.30;;
6517;SDS011;3292;48.944;9.240;2023-03-31T13:53:51;2.20;;;1.40;;
6517;SDS011;3292;48.944;9.240;2023-03-31T13:56:34;1.47;;;1.37;;
6517;SDS011;3292;48.944;9.240;2023-03-31T13:59:18;3.80;;;1.50;;
6517;SDS011;3292;48.944;9.240;2023-03-31T14:02:11;2.70;;;1.50;;
6517;SDS011;3292;48.944;9.240;2023-03-31T14:08:01;4.57;;;1.33;;
6517;SDS011;3292;48.944;9.240;2023-03-31T14:10:32;1.67;;;1.27;;
6517;SDS011;3292;48.944;9.240;2023-03-31T14:13:04;1.60;;;1.10;;
6517;SDS011;3292;48.944;9.240;2023-03-31T14:15:33;2.50;;;1.20;;
6517;SDS011;3292;48.944;9.240;2023-03-31T14:18:01;1.20;;;1.10;;
6517;SDS011;3292;48.944;9.240;2023-03-31T14:20:34;1.67;;;1.40;;
6517;SDS011;3292;48.944;9.240;2023-03-31T14:23:15;2.07;;;1.30;;
6517;SDS011;3292;48.944;9.240;2023-03-31T14:25:52;2.70;;;1.20;;
6517;SDS011;3292;48.944;9.240;2023-03-31T14:28:30;2.17;;;1.47;;
6517;SDS011;3292;48.944;9.240;2023-03-31T14:31:18;2.90;;;1.50;;
6517;SDS011;3292;48.944;9.240;2023-03-31T14:33:52;2.27;;;1.53;;
6517;SDS011;3292;48.944;9.240;2023-03-31T14:36:34;2.47;;;1.20;;
6517;SDS011;3292;48.944;9.240;2023-03-31T14:39:08;2.63;;;1.60;;
6517;SDS011;3292;48.944;9.240;2023-03-31T14:41:37;3.07;;;1.40;;
6517;SDS011;3292;48.944;9.240;2023-03-31T14:44:04;3.60;;;1.67;;
6517;SDS011;3292;48.944;9.240;2023-03-31T14:46:35;2.40;;;1.73;;
6517;SDS011;3292;48.944;9.240;2023-03-31T14:49:14;3.27;;;1.70;;
6517;SDS011;3292;48.944;9.240;2023-03-31T14:51:45;2.53;;;1.47;;
6517;SDS011;3292;48.944;9.240;2023-03-31T14:54:15;2.10;;;1.30;;
6517;SDS011;3292;48.944;9.240;2023-03-31T14:56:44;1.83;;;1.33;;
6517;SDS011;3292;48.944;9.240;2023-03-31T14:59:15;2.53;;;1.30;;
6517;SDS011;3292;48.944;9.240;2023-03-31T15:01:46;2.07;;;1.40;;
6517;SDS011;3292;48.944;9.240;2023-03-31T15:04:15;2.87;;;1.57;;
6517;SDS011;3292;48.944;9.240;2023-03-31T15:06:46;2.47;;;1.70;;
6517;SDS011;3292;48.944;9.240;2023-03-31T15:09:17;1.97;;;1.43;;
6517;SDS011;3292;48.944;9.240;2023-03-31T15:11:52;2.30;;;1.50;;
6517;SDS011;3292;48.944;9.240;2023-03-31T15:14:21;3.03;;;1.40;;
6517;SDS011;3292;48.944;9.240;2023-03-31T15:16:49;2.03;;;1.33;;
6517;SDS011;3292;48.944;9.240;2023-03-31T15:19:17;2.53;;;1.37;;
6517;SDS011;3292;48.944;9.240;2023-03-31T15:21:45;1.57;;;1.40;;
6517;SDS011;3292;48.944;9.240;2023-03-31T15:24:21;3.07;;;1.30;;
6517;SDS011;3292;48.944;9.240;2023-03-31T15:26:50;1.63;;;1.30;;
6517;SDS011;3292;48.944;9.240;2023-03-31T15:29:22;1.83;;;1.40;;
6517;SDS011;3292;48.944;9.240;2023-03-31T15:31:55;1.17;;;1.07;;
6517;SDS011;3292;48.944;9.240;2023-03-31T15:34:24;2.63;;;1.23;;
6517;SDS011;3292;48.944;9.240;2023-03-31T15:36:55;1.50;;;1.33;;
6517;SDS011;3292;48.944;9.240;2023-03-31T15:39:24;2.10;;;1.30;;
6517;SDS011;3292;48.944;9.240;2023-03-31T15:41:53;1.77;;;1.30;;
6517;SDS011;3292;48.944;9.240;2023-03-31T15:44:28;2.00;;;1.50;;
6517;SDS011;3292;48.944;9.240;2023-03-31T15:47:05;1.97;;;1.50;;
6517;SDS011;3292;48.944;9.240;2023-03-31T15:49:37;1.80;;;1.40;;
6517;SDS011;3292;48.944;9.240;2023-03-31T15:52:18;2.70;;;1.40;;
6517;SDS011;3292;48.944;9.240;2023-03-31T15:54:48;2.60;;;1.47;;
6517;SDS011;3292;48.944;9.240;2023-03-31T15:57:15;1.80;;;1.40;;
6517;SDS011;3292;48.944;9.240;2023-03-31T15:59:44;2.63;;;1.40;;
6517;SDS011;3292;48.944;9.240;2023-03-31T16:02:13;3.27;;;1.40;;
6517;SDS011;3292;48.944;9.240;2023-03-31T16:04:42;3.63;;;1.50;;